sensor_id;sensor_type;location;lat;lon;timestamp;pressure;altitude;pressure_sealevel;temperature;humidity
10716;BME280;5409;42.620;23.316;2022-12-07T00:01:25;92148.25;;;4.33;100.00
10716;BME280;5409;42.620;23.316;2022-12-07T00:03:53;92147.16;;;4.27;100.00
10716;BME280;5409;42.620;23.316;2022-12-07T00:06:23;92147.16;;;4.27;100.00
10716;BME280;5409;42.620;23.316;2022-12-07T00:08:50;92152.22;;;4.25;100.00
10716;BME280;5409;42.620;23.316;2022-12-07T00:11:18;92153.38;;;4.24;100.00
10716;BME280;5409;42.620;23.316;2022-12-07T00:13:46;92151.09;;;4.22;100.00
10716;BME280;5409;42.620;23.316;2022-12-07T00:16:14;92150.78;;;4.17;100.00
10716;BME280;5409;42.620;23.316;2022-12-07T00:18:42;92137.25;;;4.20;100.00
10716;BME280;5409;42.620;23.316;2022-12-07T00:21:10;92130.25;;;4.23;100.00
10716;BME280;5409;42.620;23.316;2022-12-07T00:23:40;92136.03;;;4.25;100.00
10716;BME280;5409;42.620;23.316;2022-12-07T00:26:08;92132.16;;;4.26;100.00
10716;BME280;5409;42.620;23.316;2022-12-07T00:28:36;92127.19;;;4.24;100.00
10716;BME280;5409;42.620;23.316;2022-12-07T00:31:05;92129.91;;;4.21;100.00
10716;BME280;5409;42.620;23.316;2022-12-07T00:33:32;92130.72;;;4.18;100.00
10716;BME280;5409;42.620;23.316;2022-12-07T00:35:59;92139.53;;;4.22;100.00
10716;BME280;5409;42.620;23.316;2022-12-07T00:38:28;92141.06;;;4.23;100.00
10716;BME280;5409;42.620;23.316;2022-12-07T00:40:58;92139.94;;;4.20;100.00
10716;BME280;5409;42.620;23.316;2022-12-07T00:43:25;92138.41;;;4.19;100.00
10716;BME280;5409;42.620;23.316;2022-12-07T00:45:52;92124.91;;;4.19;100.00
10716;BME280;5409;42.620;23.316;2022-12-07T00:48:20;92126.00;;;4.25;100.00
10716;BME280;5409;42.620;23.316;2022-12-07T00:50:47;92115.56;;;4.27;100.00
10716;BME280;5409;42.620;23.316;2022-12-07T00:53:14;92128.25;;;4.30;100.00
10716;BME280;5409;42.620;23.316;2022-12-07T00:55:41;92135.72;;;4.19;100.00
10716;BME280;5409;42.620;23.316;2022-12-07T00:58:10;92128.13;;;4.07;100.00
10716;BME280;5409;42.620;23.316;2022-12-07T01:00:38;92121.63;;;4.05;100.00
10716;BME280;5409;42.620;23.316;2022-12-07T01:03:06;92135.41;;;4.14;100.00
10716;BME280;5409;42.620;23.316;2022-12-07T01:05:33;92131.53;;;4.15;100.00
10716;BME280;5409;42.620;23.316;2022-12-07T01:08:00;92127.25;;;4.17;100.00
10716;BME280;5409;42.620;23.316;2022-12-07T01:10:27;92123.09;;;4.09;100.00
10716;BME280;5409;42.620;23.316;2022-12-07T01:12:55;92127.31;;;4.14;100.00
10716;BME280;5409;42.620;23.316;2022-12-07T01:15:23;92124.69;;;4.07;100.00
10716;BME280;5409;42.620;23.316;2022-12-07T01:17:50;92120.38;;;4.13;100.00
10716;BME280;5409;42.620;23.316;2022-12-07T01:20:17;92116.53;;;4.14;100.00
10716;BME280;5409;42.620;23.316;2022-12-07T01:22:44;92108.72;;;4.19;100.00
10716;BME280;5409;42.620;23.316;2022-12-07T01:25:11;92110.25;;;4.20;100.00
10716;BME280;5409;42.620;23.316;2022-12-07T01:27:38;92114.06;;;4.23;100.00
10716;BME280;5409;42.620;23.316;2022-12-07T01:30:06;92109.84;;;4.22;100.00
10716;BME280;5409;42.620;23.316;2022-12-07T01:32:34;92111.38;;;4.23;100.00
10716;BME280;5409;42.620;23.316;2022-12-07T01:35:01;92109.09;;;4.21;100.00
10716;BME280;5409;42.620;23.316;2022-12-07T01:37:28;92117.56;;;4.20;100.00
10716;BME280;5409;42.620;23.316;2022-12-07T01:39:59;92109.16;;;4.18;100.00
10716;BME280;5409;42.620;23.316;2022-12-07T01:42:26;92106.09;;;4.16;100.00
10716;BME280;5409;42.620;23.316;2022-12-07T01:45:34;92106.78;;;4.20;100.00
10716;BME280;5409;42.620;23.316;2022-12-07T01:48:05;92109.47;;;4.20;100.00
10716;BME280;5409;42.620;23.316;2022-12-07T01:50:33;92107.25;;;4.15;100.00
10716;BME280;5409;42.620;23.316;2022-12-07T01:53:03;92115.44;;;4.08;100.00
10716;BME280;5409;42.620;23.316;2022-12-07T01:55:31;92108.94;;;4.02;100.00
10716;BME280;5409;42.620;23.316;2022-12-07T01:57:58;92105.53;;;3.98;100.00
10716;BME280;5409;42.620;23.316;2022-12-07T02:00:25;92099.03;;;3.95;100.00
10716;BME280;5409;42.620;23.316;2022-12-07T02:02:55;92090.16;;;3.95;100.00
10716;BME280;5409;42.620;23.316;2022-12-07T02:05:26;92083.22;;;3.97;100.00
10716;BME280;5409;42.620;23.316;2022-12-07T02:07:55;92077.00;;;4.00;100.00
10716;BME280;5409;42.620;23.316;2022-12-07T02:10:26;92078.13;;;4.03;100.00
10716;BME280;5409;42.620;23.316;2022-12-07T02:12:55;92075.78;;;4.05;100.00
10716;BME280;5409;42.620;23.316;2022-12-07T02:15:27;92087.78;;;4.00;100.00
10716;BME280;5409;42.620;23.316;2022-12-07T02:18:02;92084.75;;;3.95;100.00
10716;BME280;5409;42.620;23.316;2022-12-07T02:20:37;92108.84;;;3.79;100.00
10716;BME280;5409;42.620;23.316;2022-12-07T02:23:38;92103.81;;;3.81;100.00
10716;BME280;5409;42.620;23.316;2022-12-07T02:26:29;92104.97;;;3.80;100.00
10716;BME280;5409;42.620;23.316;2022-12-07T02:29:25;92094.88;;;3.87;100.00
10716;BME280;5409;42.620;23.316;2022-12-07T02:32:02;92090.94;;;3.92;100.00
10716;BME280;5409;42.620;23.316;2022-12-07T02:34:38;92088.25;;;3.92;100.00
10716;BME280;5409;42.620;23.316;2022-12-07T02:37:12;92079.28;;;4.02;100.00
10716;BME280;5409;42.620;23.316;2022-12-07T02:39:44;92075.81;;;4.01;100.00
10716;BME280;5409;42.620;23.316;2022-12-07T02:42:17;92065.50;;;3.96;100.00
10716;BME280;5409;42.620;23.316;2022-12-07T02:44:47;92068.19;;;3.96;100.00
10716;BME280;5409;42.620;23.316;2022-12-07T02:47:17;92084.38;;;3.96;100.00
10716;BME280;5409;42.620;23.316;2022-12-07T02:49:44;92092.56;;;3.86;100.00
10716;BME280;5409;42.620;23.316;2022-12-07T02:52:11;92091.03;;;3.85;100.00
10716;BME280;5409;42.620;23.316;2022-12-07T02:54:38;92079.28;;;3.68;100.00
10716;BME280;5409;42.620;23.316;2022-12-07T02:57:17;92080.44;;;3.67;100.00
10716;BME280;5409;42.620;23.316;2022-12-07T03:00:00;92078.91;;;3.70;100.00
10716;BME280;5409;42.620;23.316;2022-12-07T03:02:35;92073.09;;;3.71;100.00
10716;BME280;5409;42.620;23.316;2022-12-07T03:05:15;92068.44;;;3.75;100.00
10716;BME280;5409;42.620;23.316;2022-12-07T03:07:51;92070.44;;;3.68;100.00
10716;BME280;5409;42.620;23.316;2022-12-07T03:10:27;92063.16;;;3.65;100.00
10716;BME280;5409;42.620;23.316;2022-12-07T03:13:02;92054.72;;;3.63;100.00
10716;BME280;5409;42.620;23.316;2022-12-07T03:15:33;92056.25;;;3.64;100.00
10716;BME280;5409;42.620;23.316;2022-12-07T03:18:03;92053.19;;;3.62;100.00
10716;BME280;5409;42.620;23.316;2022-12-07T03:20:32;92053.53;;;3.64;100.00
10716;BME280;5409;42.620;23.316;2022-12-07T03:23:04;92057.72;;;3.68;100.00
10716;BME280;5409;42.620;23.316;2022-12-07T03:25:38;92060.78;;;3.70;100.00
10716;BME280;5409;42.620;23.316;2022-12-07T03:28:07;92039.75;;;3.58;100.00
10716;BME280;5409;42.620;23.316;2022-12-07T03:30:40;92063.53;;;3.67;100.00
10716;BME280;5409;42.620;23.316;2022-12-07T03:33:12;92060.84;;;3.67;100.00
10716;BME280;5409;42.620;23.316;2022-12-07T03:35:43;92062.72;;;3.70;100.00
10716;BME280;5409;42.620;23.316;2022-12-07T03:38:15;92060.78;;;3.70;100.00
10716;BME280;5409;42.620;23.316;2022-12-07T03:40:48;92061.16;;;3.72;100.00
10716;BME280;5409;42.620;23.316;2022-12-07T03:43:17;92056.91;;;3.75;100.00
10716;BME280;5409;42.620;23.316;2022-12-07T03:45:55;92061.06;;;3.79;100.00
10716;BME280;5409;42.620;23.316;2022-12-07T03:48:32;92059.91;;;3.80;100.00
10716;BME280;5409;42.620;23.316;2022-12-07T03:51:07;92054.06;;;3.85;100.00
10716;BME280;5409;42.620;23.316;2022-12-07T03:53:37;92060.56;;;3.88;100.00
10716;BME280;5409;42.620;23.316;2022-12-07T03:56:06;92058.38;;;3.79;100.00
10716;BME280;5409;42.620;23.316;2022-12-07T03:58:35;92054.13;;;3.82;100.00
10716;BME280;5409;42.620;23.316;2022-12-07T04:01:04;92051.00;;;3.83;100.00
10716;BME280;5409;42.620;23.316;2022-12-07T04:03:30;92045.56;;;3.87;100.00
10716;BME280;5409;42.620;23.316;2022-12-07T04:05:57;92048.63;;;3.89;100.00
10716;BME280;5409;42.620;23.316;2022-12-07T04:08:25;92058.25;;;3.90;100.00
10716;BME280;5409;42.620;23.316;2022-12-07T04:10:51;92041.31;;;3.89;100.00
10716;BME280;5409;42.620;23.316;2022-12-07T04:13:18;92048.63;;;3.89;100.00
10716;BME280;5409;42.620;23.316;2022-12-07T04:15:45;92052.75;;;3.97;100.00
10716;BME280;5409;42.620;23.316;2022-12-07T04:18:13;92048.53;;;3.96;100.00
10716;BME280;5409;42.620;23.316;2022-12-07T04:20:40;92053.56;;;3.94;100.00
10716;BME280;5409;42.620;23.316;2022-12-07T04:23:06;92048.19;;;3.94;100.00
10716;BME280;5409;42.620;23.316;2022-12-07T04:25:33;92043.94;;;3.93;100.00
10716;BME280;5409;42.620;23.316;2022-12-07T04:28:00;92042.84;;;3.90;100.00
10716;BME280;5409;42.620;23.316;2022-12-07T04:30:27;92048.63;;;3.89;100.00
10716;BME280;5409;42.620;23.316;2022-12-07T04:32:53;92057.97;;;3.81;100.00
10716;BME280;5409;42.620;23.316;2022-12-07T04:35:22;92052.19;;;3.82;100.00
10716;BME280;5409;42.620;23.316;2022-12-07T04:37:48;92054.47;;;3.84;100.00
10716;BME280;5409;42.620;23.316;2022-12-07T04:40:15;92050.28;;;3.79;100.00
10716;BME280;5409;42.620;23.316;2022-12-07T04:42:42;92054.94;;;3.75;100.00
10716;BME280;5409;42.620;23.316;2022-12-07T04:45:09;92057.28;;;3.73;100.00
10716;BME280;5409;42.620;23.316;2022-12-07T04:47:36;92065.41;;;3.70;100.00
10716;BME280;5409;42.620;23.316;2022-12-07T04:50:03;92063.53;;;3.67;100.00
10716;BME280;5409;42.620;23.316;2022-12-07T04:52:32;92061.69;;;3.60;100.00
10716;BME280;5409;42.620;23.316;2022-12-07T04:54:58;92062.44;;;3.61;100.00
10716;BME280;5409;42.620;23.316;2022-12-07T04:57:25;92053.97;;;3.59;100.00
10716;BME280;5409;42.620;23.316;2022-12-07T04:59:52;92063.66;;;3.56;100.00
10716;BME280;5409;42.620;23.316;2022-12-07T05:02:19;92062.88;;;3.56;100.00
10716;BME280;5409;42.620;23.316;2022-12-07T05:04:45;92062.84;;;3.59;100.00
10716;BME280;5409;42.620;23.316;2022-12-07T05:07:12;92051.66;;;3.61;100.00
10716;BME280;5409;42.620;23.316;2022-12-07T05:09:40;92053.19;;;3.62;100.00
10716;BME280;5409;42.620;23.316;2022-12-07T05:12:07;92052.78;;;3.63;100.00
10716;BME280;5409;42.620;23.316;2022-12-07T05:14:34;92056.28;;;3.60;100.00
10716;BME280;5409;42.620;23.316;2022-12-07T05:17:00;92062.13;;;3.55;100.00
10716;BME280;5409;42.620;23.316;2022-12-07T05:19:27;92071.00;;;3.52;100.00
10716;BME280;5409;42.620;23.316;2022-12-07T05:21:54;92080.25;;;3.51;100.00
10716;BME280;5409;42.620;23.316;2022-12-07T05:24:21;92071.38;;;3.51;100.00
10716;BME280;5409;42.620;23.316;2022-12-07T05:26:49;92067.50;;;3.55;100.00
10716;BME280;5409;42.620;23.316;2022-12-07T05:29:16;92066.28;;;3.60;100.00
10716;BME280;5409;42.620;23.316;2022-12-07T05:31:44;92050.94;;;3.57;100.00
10716;BME280;5409;42.620;23.316;2022-12-07T05:34:11;92060.91;;;3.60;100.00
10716;BME280;5409;42.620;23.316;2022-12-07T05:36:38;92063.28;;;3.54;100.00
10716;BME280;5409;42.620;23.316;2022-12-07T05:39:05;92059.44;;;3.55;100.00
10716;BME280;5409;42.620;23.316;2022-12-07T05:41:32;92044.38;;;3.58;100.00
10716;BME280;5409;42.620;23.316;2022-12-07T05:44:18;92049.75;;;3.61;100.00
10716;BME280;5409;42.620;23.316;2022-12-07T05:46:44;92037.78;;;3.62;100.00
10716;BME280;5409;42.620;23.316;2022-12-07T05:49:11;92038.47;;;3.70;100.00
10716;BME280;5409;42.620;23.316;2022-12-07T05:51:38;92049.91;;;3.81;100.00
10716;BME280;5409;42.620;23.316;2022-12-07T05:54:05;92044.03;;;3.86;100.00
10716;BME280;5409;42.620;23.316;2022-12-07T05:56:32;92052.09;;;3.89;100.00
10716;BME280;5409;42.620;23.316;2022-12-07T05:58:58;92034.41;;;3.88;100.00
10716;BME280;5409;42.620;23.316;2022-12-07T06:01:44;92044.22;;;4.02;100.00
10716;BME280;5409;42.620;23.316;2022-12-07T06:04:11;92038.78;;;4.05;100.00
10716;BME280;5409;42.620;23.316;2022-12-07T06:06:38;92042.41;;;3.95;100.00
10716;BME280;5409;42.620;23.316;2022-12-07T06:09:04;92025.97;;;3.83;100.00
10716;BME280;5409;42.620;23.316;2022-12-07T06:11:31;92048.91;;;3.98;100.00
10716;BME280;5409;42.620;23.316;2022-12-07T06:14:15;92046.22;;;3.98;100.00
10716;BME280;5409;42.620;23.316;2022-12-07T06:16:43;92048.50;;;3.99;100.00
10716;BME280;5409;42.620;23.316;2022-12-07T06:19:10;92049.31;;;3.96;100.00
10716;BME280;5409;42.620;23.316;2022-12-07T06:21:37;92058.94;;;3.97;100.00
10716;BME280;5409;42.620;23.316;2022-12-07T06:24:04;92057.34;;;4.00;100.00
10716;BME280;5409;42.620;23.316;2022-12-07T06:26:31;92058.88;;;4.01;100.00
10716;BME280;5409;42.620;23.316;2022-12-07T06:28:58;92071.94;;;4.02;100.00
10716;BME280;5409;42.620;23.316;2022-12-07T06:31:24;92063.81;;;4.06;100.00
10716;BME280;5409;42.620;23.316;2022-12-07T06:33:57;92069.53;;;4.11;100.00
10716;BME280;5409;42.620;23.316;2022-12-07T06:36:24;92060.72;;;4.07;100.00
10716;BME280;5409;42.620;23.316;2022-12-07T06:38:50;92061.84;;;4.10;100.00
10716;BME280;5409;42.620;23.316;2022-12-07T06:41:17;92059.81;;;4.17;100.00
10716;BME280;5409;42.620;23.316;2022-12-07T06:43:44;92059.72;;;4.24;100.00
10716;BME280;5409;42.620;23.316;2022-12-07T06:46:11;92058.94;;;4.27;100.00
10716;BME280;5409;42.620;23.316;2022-12-07T06:48:37;92060.75;;;4.34;100.00
10716;BME280;5409;42.620;23.316;2022-12-07T06:51:06;92067.38;;;4.29;100.00
10716;BME280;5409;42.620;23.316;2022-12-07T06:53:32;92071.53;;;4.34;100.00
10716;BME280;5409;42.620;23.316;2022-12-07T06:55:59;92072.00;;;4.29;100.00
10716;BME280;5409;42.620;23.316;2022-12-07T06:58:26;92045.09;;;4.22;100.00
10716;BME280;5409;42.620;23.316;2022-12-07T07:00:53;92068.75;;;4.41;100.00
10716;BME280;5409;42.620;23.316;2022-12-07T07:03:20;92071.75;;;4.46;100.00
10716;BME280;5409;42.620;23.316;2022-12-07T07:05:47;92070.56;;;4.50;100.00
10716;BME280;5409;42.620;23.316;2022-12-07T07:08:15;92074.78;;;4.51;100.00
10716;BME280;5409;42.620;23.316;2022-12-07T07:10:42;92073.25;;;4.50;100.00
10716;BME280;5409;42.620;23.316;2022-12-07T07:13:08;92073.25;;;4.50;100.00
10716;BME280;5409;42.620;23.316;2022-12-07T07:15:37;92058.88;;;4.57;100.00
10716;BME280;5409;42.620;23.316;2022-12-07T07:18:04;92065.59;;;4.46;100.00
10716;BME280;5409;42.620;23.316;2022-12-07T07:20:31;92060.22;;;4.46;100.00
10716;BME280;5409;42.620;23.316;2022-12-07T07:22:58;92067.84;;;4.50;100.00
10716;BME280;5409;42.620;23.316;2022-12-07T07:25:26;92073.44;;;4.37;100.00
10716;BME280;5409;42.620;23.316;2022-12-07T07:27:53;92081.47;;;4.40;100.00
10716;BME280;5409;42.620;23.316;2022-12-07T07:30:20;92084.94;;;4.41;100.00
10716;BME280;5409;42.620;23.316;2022-12-07T07:32:47;92088.00;;;4.43;100.00
10716;BME280;5409;42.620;23.316;2022-12-07T07:35:14;92089.91;;;4.46;100.00
10716;BME280;5409;42.620;23.316;2022-12-07T07:37:41;92091.41;;;4.47;100.00
10716;BME280;5409;42.620;23.316;2022-12-07T07:40:08;92086.38;;;4.48;100.00
10716;BME280;5409;42.620;23.316;2022-12-07T07:42:36;92087.91;;;4.49;100.00
10716;BME280;5409;42.620;23.316;2022-12-07T07:45:04;92096.72;;;4.53;100.00
10716;BME280;5409;42.620;23.316;2022-12-07T07:47:31;92086.13;;;4.66;100.00
10716;BME280;5409;42.620;23.316;2022-12-07T07:49:57;92068.16;;;4.56;100.00
10716;BME280;5409;42.620;23.316;2022-12-07T07:52:24;92082.00;;;4.84;100.00
10716;BME280;5409;42.620;23.316;2022-12-07T07:54:51;92083.75;;;4.94;100.00
10716;BME280;5409;42.620;23.316;2022-12-07T07:57:18;92078.13;;;5.08;100.00
10716;BME280;5409;42.620;23.316;2022-12-07T07:59:46;92076.75;;;5.23;100.00
10716;BME280;5409;42.620;23.316;2022-12-07T08:02:14;92080.31;;;5.40;100.00
10716;BME280;5409;42.620;23.316;2022-12-07T08:04:42;92082.22;;;5.43;100.00
10716;BME280;5409;42.620;23.316;2022-12-07T08:07:08;92087.19;;;5.44;100.00
10716;BME280;5409;42.620;23.316;2022-12-07T08:09:35;92089.81;;;5.48;100.00
10716;BME280;5409;42.620;23.316;2022-12-07T08:12:02;92082.25;;;5.39;100.00
10716;BME280;5409;42.620;23.316;2022-12-07T08:14:29;92094.00;;;5.29;100.00
10716;BME280;5409;42.620;23.316;2022-12-07T08:16:57;92085.22;;;5.25;100.00
10716;BME280;5409;42.620;23.316;2022-12-07T08:19:24;92082.09;;;5.27;100.00
10716;BME280;5409;42.620;23.316;2022-12-07T08:21:51;92080.31;;;5.17;100.00
10716;BME280;5409;42.620;23.316;2022-12-07T08:24:18;92093.81;;;5.17;100.00
10716;BME280;5409;42.620;23.316;2022-12-07T08:26:45;92070.75;;;5.12;100.00
10716;BME280;5409;42.620;23.316;2022-12-07T08:29:11;92064.56;;;5.12;100.00
10716;BME280;5409;42.620;23.316;2022-12-07T08:31:38;92069.94;;;5.15;100.00
10716;BME280;5409;42.620;23.316;2022-12-07T08:34:06;92076.69;;;5.27;100.00
10716;BME280;5409;42.620;23.316;2022-12-07T08:36:33;92073.56;;;5.28;100.00
10716;BME280;5409;42.620;23.316;2022-12-07T08:39:00;92079.81;;;5.25;100.00
10716;BME280;5409;42.620;23.316;2022-12-07T08:41:27;92077.78;;;5.29;100.00
10716;BME280;5409;42.620;23.316;2022-12-07T08:43:53;92078.38;;;5.40;100.00
10716;BME280;5409;42.620;23.316;2022-12-07T08:46:24;92077.81;;;5.49;100.00
10716;BME280;5409;42.620;23.316;2022-12-07T08:48:54;92084.28;;;5.55;100.00
10716;BME280;5409;42.620;23.316;2022-12-07T08:51:23;92074.25;;;5.55;100.00
10716;BME280;5409;42.620;23.316;2022-12-07T08:53:51;92075.97;;;5.65;100.00
10716;BME280;5409;42.620;23.316;2022-12-07T08:56:19;92071.97;;;5.73;100.00
10716;BME280;5409;42.620;23.316;2022-12-07T08:58:47;92052.69;;;5.71;100.00
10716;BME280;5409;42.620;23.316;2022-12-07T09:01:14;92063.06;;;5.95;100.00
10716;BME280;5409;42.620;23.316;2022-12-07T09:03:41;92073.34;;;6.04;100.00
10716;BME280;5409;42.620;23.316;2022-12-07T09:06:08;92062.88;;;6.06;100.00
10716;BME280;5409;42.620;23.316;2022-12-07T09:08:40;92061.75;;;6.03;100.00
10716;BME280;5409;42.620;23.316;2022-12-07T09:11:08;92056.34;;;6.03;100.00
10716;BME280;5409;42.620;23.316;2022-12-07T09:13:35;92054.34;;;6.07;100.00
10716;BME280;5409;42.620;23.316;2022-12-07T09:16:02;92053.78;;;6.16;100.00
10716;BME280;5409;42.620;23.316;2022-12-07T09:18:29;92057.66;;;6.15;100.00
10716;BME280;5409;42.620;23.316;2022-12-07T09:20:56;92057.53;;;6.22;100.00
10716;BME280;5409;42.620;23.316;2022-12-07T09:23:23;92044.53;;;6.33;100.00
10716;BME280;5409;42.620;23.316;2022-12-07T09:25:51;92042.00;;;6.42;100.00
10716;BME280;5409;42.620;23.316;2022-12-07T09:28:18;92043.31;;;6.53;100.00
10716;BME280;5409;42.620;23.316;2022-12-07T09:30:45;92051.22;;;6.64;100.00
10716;BME280;5409;42.620;23.316;2022-12-07T09:33:13;92044.47;;;6.72;100.00
10716;BME280;5409;42.620;23.316;2022-12-07T09:35:44;92045.97;;;6.88;100.00
10716;BME280;5409;42.620;23.316;2022-12-07T09:38:11;92039.91;;;7.00;100.00
10716;BME280;5409;42.620;23.316;2022-12-07T09:40:38;92028.91;;;7.07;100.00
10716;BME280;5409;42.620;23.316;2022-12-07T09:43:12;92020.50;;;7.18;100.00
10716;BME280;5409;42.620;23.316;2022-12-07T09:45:40;92028.13;;;7.23;100.00
10716;BME280;5409;42.620;23.316;2022-12-07T09:48:16;92019.78;;;7.30;100.00
10716;BME280;5409;42.620;23.316;2022-12-07T09:50:44;92020.88;;;7.48;100.00
10716;BME280;5409;42.620;23.316;2022-12-07T09:53:14;92028.44;;;7.41;100.00
10716;BME280;5409;42.620;23.316;2022-12-07T09:55:43;92021.66;;;7.33;100.00
10716;BME280;5409;42.620;23.316;2022-12-07T09:58:19;92018.09;;;7.36;100.00
10716;BME280;5409;42.620;23.316;2022-12-07T10:00:46;92022.84;;;7.48;100.00
10716;BME280;5409;42.620;23.316;2022-12-07T10:03:13;92022.00;;;7.35;100.00
10716;BME280;5409;42.620;23.316;2022-12-07T10:05:42;92010.47;;;7.47;100.00
10716;BME280;5409;42.620;23.316;2022-12-07T10:08:11;92009.78;;;7.59;100.00
10716;BME280;5409;42.620;23.316;2022-12-07T10:10:39;91994.69;;;7.58;100.00
10716;BME280;5409;42.620;23.316;2022-12-07T10:13:09;92017.28;;;7.67;100.00
10716;BME280;5409;42.620;23.316;2022-12-07T10:15:46;92020.34;;;7.69;100.00
10716;BME280;5409;42.620;23.316;2022-12-07T10:18:25;92011.41;;;7.69;100.00
10716;BME280;5409;42.620;23.316;2022-12-07T10:21:05;92023.53;;;7.80;100.00
10716;BME280;5409;42.620;23.316;2022-12-07T10:23:33;92015.63;;;7.86;100.00
10716;BME280;5409;42.620;23.316;2022-12-07T10:26:19;92002.91;;;7.83;100.00
10716;BME280;5409;42.620;23.316;2022-12-07T10:28:47;91995.81;;;8.01;100.00
10716;BME280;5409;42.620;23.316;2022-12-07T10:31:18;91987.13;;;8.06;100.00
10716;BME280;5409;42.620;23.316;2022-12-07T10:33:51;91985.69;;;8.30;100.00
10716;BME280;5409;42.620;23.316;2022-12-07T10:36:21;91977.34;;;8.49;100.00
10716;BME280;5409;42.620;23.316;2022-12-07T10:38:50;91990.50;;;8.51;100.00
10716;BME280;5409;42.620;23.316;2022-12-07T10:41:18;91993.88;;;8.55;100.00
10716;BME280;5409;42.620;23.316;2022-12-07T10:43:51;91984.94;;;8.67;100.00
10716;BME280;5409;42.620;23.316;2022-12-07T10:52:38;91984.13;;;9.16;100.00
10716;BME280;5409;42.620;23.316;2022-12-07T10:55:18;91977.03;;;10.41;100.00
10716;BME280;5409;42.620;23.316;2022-12-07T10:58:20;91979.00;;;10.71;100.00
10716;BME280;5409;42.620;23.316;2022-12-07T11:00:57;91966.25;;;10.38;100.00
10716;BME280;5409;42.620;23.316;2022-12-07T11:03:37;91980.81;;;10.22;100.00
10716;BME280;5409;42.620;23.316;2022-12-07T11:06:15;91973.50;;;10.11;100.00
10716;BME280;5409;42.620;23.316;2022-12-07T11:08:59;91979.91;;;10.17;100.00
10716;BME280;5409;42.620;23.316;2022-12-07T11:11:33;91968.13;;;10.20;100.00
10716;BME280;5409;42.620;23.316;2022-12-07T11:14:09;91970.84;;;10.20;100.00
10716;BME280;5409;42.620;23.316;2022-12-07T11:16:50;91971.78;;;10.25;100.00
10716;BME280;5409;42.620;23.316;2022-12-07T11:19:34;91969.38;;;10.27;100.00
10716;BME280;5409;42.620;23.316;2022-12-07T11:22:14;91971.84;;;10.13;100.00
10716;BME280;5409;42.620;23.316;2022-12-07T11:24:49;66203.50;;;-140.83;100.00
10716;BME280;5409;42.620;23.316;2022-12-07T11:27:23;66203.50;;;-140.83;100.00
10716;BME280;5409;42.620;23.316;2022-12-07T11:30:11;66203.50;;;-140.83;100.00
10716;BME280;5409;42.620;23.316;2022-12-07T11:33:00;66203.50;;;-140.83;100.00
10716;BME280;5409;42.620;23.316;2022-12-07T11:35:38;66203.50;;;-140.83;100.00
10716;BME280;5409;42.620;23.316;2022-12-07T11:38:12;66203.50;;;-140.83;100.00
10716;BME280;5409;42.620;23.316;2022-12-07T11:40:43;66203.50;;;-140.83;100.00
10716;BME280;5409;42.620;23.316;2022-12-07T11:43:17;66203.50;;;-140.83;100.00
10716;BME280;5409;42.620;23.316;2022-12-07T11:45:52;66203.50;;;-140.83;100.00
10716;BME280;5409;42.620;23.316;2022-12-07T11:48:27;66203.50;;;-140.83;100.00
10716;BME280;5409;42.620;23.316;2022-12-07T11:50:58;66203.50;;;-140.83;100.00
10716;BME280;5409;42.620;23.316;2022-12-07T11:53:31;66203.50;;;-140.83;100.00
10716;BME280;5409;42.620;23.316;2022-12-07T11:56:02;66203.50;;;-140.83;100.00
10716;BME280;5409;42.620;23.316;2022-12-07T11:58:39;66203.50;;;-140.83;100.00
10716;BME280;5409;42.620;23.316;2022-12-07T12:01:14;66203.50;;;-140.83;100.00
10716;BME280;5409;42.620;23.316;2022-12-07T12:03:47;66203.50;;;-140.83;100.00
10716;BME280;5409;42.620;23.316;2022-12-07T12:06:15;66203.50;;;-140.83;100.00
10716;BME280;5409;42.620;23.316;2022-12-07T12:08:47;66203.50;;;-140.83;100.00
10716;BME280;5409;42.620;23.316;2022-12-07T12:11:30;66203.50;;;-140.83;100.00
10716;BME280;5409;42.620;23.316;2022-12-07T12:14:29;66203.50;;;-140.83;100.00
10716;BME280;5409;42.620;23.316;2022-12-07T12:20:05;66203.50;;;-140.83;100.00
10716;BME280;5409;42.620;23.316;2022-12-07T12:22:37;66203.50;;;-140.83;100.00
10716;BME280;5409;42.620;23.316;2022-12-07T12:25:19;66203.50;;;-140.83;100.00
10716;BME280;5409;42.620;23.316;2022-12-07T12:27:48;66203.50;;;-140.83;100.00
10716;BME280;5409;42.620;23.316;2022-12-07T12:30:30;66203.50;;;-140.83;100.00
10716;BME280;5409;42.620;23.316;2022-12-07T12:33:03;66203.50;;;-140.83;100.00
10716;BME280;5409;42.620;23.316;2022-12-07T12:35:33;66203.50;;;-140.83;100.00
10716;BME280;5409;42.620;23.316;2022-12-07T12:41:02;66203.50;;;-140.83;100.00
10716;BME280;5409;42.620;23.316;2022-12-07T12:43:50;66203.50;;;-140.83;100.00
10716;BME280;5409;42.620;23.316;2022-12-07T12:46:37;66203.50;;;-140.83;100.00
10716;BME280;5409;42.620;23.316;2022-12-07T12:49:32;66203.50;;;-140.83;100.00
10716;BME280;5409;42.620;23.316;2022-12-07T12:52:01;66203.50;;;-140.83;100.00
10716;BME280;5409;42.620;23.316;2022-12-07T12:54:59;66203.50;;;-140.83;100.00
10716;BME280;5409;42.620;23.316;2022-12-07T12:57:29;66203.50;;;-140.83;100.00
10716;BME280;5409;42.620;23.316;2022-12-07T12:59:57;66203.50;;;-140.83;100.00
10716;BME280;5409;42.620;23.316;2022-12-07T13:02:26;66203.50;;;-140.83;100.00
10716;BME280;5409;42.620;23.316;2022-12-07T13:04:55;66203.50;;;-140.83;100.00
10716;BME280;5409;42.620;23.316;2022-12-07T13:07:55;66203.50;;;-140.83;100.00
10716;BME280;5409;42.620;23.316;2022-12-07T13:10:29;66203.50;;;-140.83;100.00
10716;BME280;5409;42.620;23.316;2022-12-07T13:13:02;66203.50;;;-140.83;100.00
10716;BME280;5409;42.620;23.316;2022-12-07T13:15:36;66203.50;;;-140.83;100.00
10716;BME280;5409;42.620;23.316;2022-12-07T13:18:22;66203.50;;;-140.83;100.00
10716;BME280;5409;42.620;23.316;2022-12-07T13:20:53;66203.50;;;-140.83;100.00
10716;BME280;5409;42.620;23.316;2022-12-07T13:23:28;66203.50;;;-140.83;100.00
10716;BME280;5409;42.620;23.316;2022-12-07T13:26:03;66203.50;;;-140.83;100.00